Time;durP1;ratioP1;P1;durP2;ratioP2;P2;SDS_P1;SDS_P2;PMS_P1;PMS_P2;Temp;Humidity;BMP_temperature;BMP_pressure;BME280_temperature;BME280_humidity;BME280_pressure;Samples;Min_cycle;Max_cycle;Signal;HPM_P1;HPM_P2
2024/04/14 00:02:04;;;;;;;;;;;;;;;3.65;100.00;101812.50;5495601;26;19935;-86
2024/04/14 00:04:30;;;;;;;;;;;;;;;3.68;100.00;101814.94;5465988;26;19927;-86
2024/04/14 00:06:55;;;;;;;;;;;;;;;3.78;100.00;101811.63;5495782;26;19934;-86
2024/04/14 00:09:21;;;;;;;;;;;;;;;3.91;100.00;101815.97;5495369;26;20350;-85
2024/04/14 00:11:46;;;;;;;;;;;;;;;4.07;100.00;101817.56;5465644;26;19935;-85
2024/04/14 00:14:12;;;;;;;;;;;;;;;4.22;100.00;101819.16;5526270;26;19940;-86
2024/04/14 00:16:38;;;;;;;;;;;;;;;4.31;100.00;101815.00;5465006;26;19927;-85
2024/04/14 00:19:03;;;;;;;;;;;;;;;4.35;100.00;101809.34;5465137;26;19995;-85
2024/04/14 00:21:29;;;;;;;;;;;;;;;4.41;100.00;101814.22;5495299;26;19927;-85
2024/04/14 00:23:55;;;;;;;;;;;;;;;4.36;100.00;101812.84;5495568;26;19939;-85
2024/04/14 00:26:21;;;;;;;;;;;;;;;4.19;100.00;101806.94;5526114;26;20429;-87
2024/04/14 00:28:48;;;;;;;;;;;;;;;4.00;100.00;101813.66;5526191;26;19928;-86
2024/04/14 00:31:15;;;;;;;;;;;;;;;3.86;100.00;101817.25;5526124;26;19936;-85
2024/04/14 00:33:40;;;;;;;;;;;;;;;3.77;100.00;101815.25;5495051;26;19928;-85
2024/04/14 00:36:06;;;;;;;;;;;;;;;3.68;100.00;101814.94;5495567;26;19975;-85
2024/04/14 00:38:31;;;;;;;;;;;;;;;3.57;100.00;101813.94;5495146;26;20327;-87
2024/04/14 00:40:57;;;;;;;;;;;;;;;3.51;100.00;101817.88;5464621;26;20387;-86
2024/04/14 00:43:23;;;;;;;;;;;;;;;3.48;100.00;101824.25;5495204;26;20278;-86
2024/04/14 00:45:48;;;;;;;;;;;;;;;3.44;100.00;101817.47;5495147;26;19934;-86
2024/04/14 00:48:14;;;;;;;;;;;;;;;3.41;100.00;101820.28;5495495;26;20282;-86
2024/04/14 00:50:43;;;;;;;;;;;;;;;3.41;100.00;101827.44;5494749;26;19927;-86
2024/04/14 00:53:08;;;;;;;;;;;;;;;3.40;100.00;101826.59;5496939;26;19936;-85
2024/04/14 00:55:34;;;;;;;;;;;;;;;3.39;100.00;101821.38;5468026;26;19938;-86
2024/04/14 00:57:59;;;;;;;;;;;;;;;3.44;100.00;101814.78;5498184;26;19928;-86
2024/04/14 01:00:25;;;;;;;;;;;;;;;3.55;100.00;101813.19;5498574;26;19927;-85
2024/04/14 01:02:53;;;;;;;;;;;;;;;3.63;100.00;101813.53;5529491;26;20326;-87
2024/04/14 01:05:20;;;;;;;;;;;;;;;-146.42;100.00;66673.91;5468527;26;19927;-86
2024/04/14 01:07:46;;;;;;;;;;;;;;;-146.42;100.00;66673.91;5528959;26;19927;-85
2024/04/14 01:10:11;;;;;;;;;;;;;;;-146.42;100.00;66673.91;5498331;26;19927;-86
2024/04/14 01:12:37;;;;;;;;;;;;;;;-146.42;100.00;66673.91;5467693;26;19927;-86
2024/04/14 01:15:03;;;;;;;;;;;;;;;-146.42;100.00;66673.91;5498304;26;19936;-86
2024/04/14 01:17:28;;;;;;;;;;;;;;;-146.42;100.00;66673.91;5498078;26;19932;-85
2024/04/14 01:19:56;;;;;;;;;;;;;;;3.87;100.00;101800.38;5498559;26;19927;-86
2024/04/14 01:22:22;;;;;;;;;;;;;;;4.00;100.00;101803.03;5467585;26;19927;-86
2024/04/14 01:24:48;;;;;;;;;;;;;;;4.14;100.00;101801.06;5497943;26;19994;-86
2024/04/14 01:27:13;;;;;;;;;;;;;;;4.31;100.00;101799.03;5467550;26;19939;-86
2024/04/14 01:29:39;;;;;;;;;;;;;;;4.52;100.00;101799.28;5467490;26;19927;-86
2024/04/14 01:32:04;;;;;;;;;;;;;;;4.65;100.00;101797.44;5497883;26;19927;-86
2024/04/14 01:34:30;;;;;;;;;;;;;;;4.72;100.00;101797.84;5528517;26;20001;-86
2024/04/14 01:36:55;;;;;;;;;;;;;;;4.69;100.00;101793.59;5497792;26;19976;-85
2024/04/14 01:39:21;;;;;;;;;;;;;;;4.58;100.00;101790.88;5497722;26;19928;-85
2024/04/14 01:41:46;;;;;;;;;;;;;;;4.46;100.00;101789.94;5506190;26;19927;-85
2024/04/14 01:44:14;;;;;;;;;;;;;;;4.33;100.00;101792.63;5505033;26;19927;-85
2024/04/14 01:46:40;;;;;;;;;;;;;;;4.16;100.00;101793.00;5498361;26;20346;-86
2024/04/14 01:49:05;;;;;;;;;;;;;;;4.02;100.00;101791.28;5467650;26;19934;-86
2024/04/14 01:51:31;;;;;;;;;;;;;;;3.97;100.00;101794.28;5467287;26;19934;-86
2024/04/14 01:53:57;;;;;;;;;;;;;;;3.88;100.00;101791.41;5467125;26;19927;-86
2024/04/14 01:56:22;;;;;;;;;;;;;;;3.81;100.00;101785.69;5528611;26;19953;-87
2024/04/14 01:58:48;;;;;;;;;;;;;;;3.90;100.00;101794.81;5530037;26;19939;-86
2024/04/14 02:01:13;;;;;;;;;;;;;;;3.94;100.00;101780.31;5467185;26;19935;-85
2024/04/14 02:03:41;;;;;;;;;;;;;;;3.92;100.00;101793.75;5466771;26;19927;-86
2024/04/14 02:06:07;;;;;;;;;;;;;;;3.88;100.00;101786.94;5497801;26;19935;-86
2024/04/14 02:08:32;;;;;;;;;;;;;;;3.88;100.00;101789.59;5497523;26;20250;-86
2024/04/14 02:10:59;;;;;;;;;;;;;;;3.85;100.00;101788.97;5497417;26;20334;-86
2024/04/14 02:13:25;;;;;;;;;;;;;;;3.75;100.00;101799.38;5466588;26;19934;-85
2024/04/14 02:15:50;;;;;;;;;;;;;;;3.74;100.00;101792.38;5467189;26;19928;-85
2024/04/14 02:18:16;;;;;;;;;;;;;;;3.82;100.00;101792.69;5528715;26;19928;-86
2024/04/14 02:20:41;;;;;;;;;;;;;;;3.85;100.00;101799.63;5527899;26;19927;-85
2024/04/14 02:23:07;;;;;;;;;;;;;;;3.78;100.00;101793.84;5497243;26;19995;-85
2024/04/14 02:25:32;;;;;;;;;;;;;;;3.55;100.00;101797.25;5466679;26;19927;-86
2024/04/14 02:27:58;;;;;;;;;;;;;;;3.40;100.00;101791.16;5466516;26;19927;-85
2024/04/14 02:30:23;;;;;;;;;;;;;;;3.35;100.00;101793.28;5496922;26;19935;-85
2024/04/14 02:32:49;;;;;;;;;;;;;;;3.38;100.00;101791.25;5527831;26;19931;-87
2024/04/14 02:35:14;;;;;;;;;;;;;;;3.53;100.00;101786.72;5497017;26;19927;-86
2024/04/14 02:37:40;;;;;;;;;;;;;;;3.58;100.00;101786.41;5466857;26;19928;-86
2024/04/14 02:40:05;;;;;;;;;;;;;;;3.75;100.00;101788.75;5496893;26;19927;-85
2024/04/14 02:42:31;;;;;;;;;;;;;;;3.99;100.00;101788.00;5527926;26;19996;-85
2024/04/14 02:44:57;;;;;;;;;;;;;;;4.15;100.00;101791.28;5466753;26;20258;-86
2024/04/14 02:47:22;;;;;;;;;;;;;;;4.28;100.00;101792.09;5527888;26;19927;-85
2024/04/14 02:49:48;;;;;;;;;;;;;;;4.38;100.00;101779.00;5527431;26;19934;-85
2024/04/14 02:52:13;;;;;;;;;;;;;;;4.50;100.00;101785.22;5496993;26;19927;-85
2024/04/14 02:54:39;;;;;;;;;;;;;;;4.55;100.00;101777.75;5496941;26;19934;-85
2024/04/14 02:57:04;;;;;;;;;;;;;;;4.55;100.00;101778.63;5496643;26;20267;-84
2024/04/14 02:59:32;;;;;;;;;;;;;;;4.56;100.00;101777.66;5496438;26;19928;-85
2024/04/14 03:01:57;;;;;;;;;;;;;;;4.59;100.00;101774.75;5497166;26;20362;-86
2024/04/14 03:04:23;;;;;;;;;;;;;;;4.61;100.00;101777.31;5529003;26;19933;-85
2024/04/14 03:06:49;;;;;;;;;;;;;;;4.63;100.00;101778.03;5496436;26;19927;-85
2024/04/14 03:09:14;;;;;;;;;;;;;;;4.63;100.00;101780.69;5465857;26;20446;-85
2024/04/14 03:11:40;;;;;;;;;;;;;;;4.60;100.00;101765.81;5465902;26;19955;-84
2024/04/14 03:14:05;;;;;;;;;;;;;;;4.68;100.00;101761.72;5496366;26;19927;-84
2024/04/14 03:16:31;;;;;;;;;;;;;;;4.78;100.00;101763.59;5526367;26;19931;-85
2024/04/14 03:18:56;;;;;;;;;;;;;;;4.89;100.00;101759.28;5496474;26;20346;-86
2024/04/14 03:21:22;;;;;;;;;;;;;;;4.97;100.00;101767.56;5496185;26;19928;-85
2024/04/14 03:23:47;;;;;;;;;;;;;;;4.99;100.00;101763.81;5496420;26;19938;-85
2024/04/14 03:26:13;;;;;;;;;;;;;;;4.96;100.00;101761.38;5496485;26;19931;-85
2024/04/14 03:28:38;;;;;;;;;;;;;;;4.89;100.00;101768.13;5496472;26;19996;-85
2024/04/14 03:31:04;;;;;;;;;;;;;;;4.74;100.00;101769.28;5527205;26;19934;-85
2024/04/14 03:33:29;;;;;;;;;;;;;;;4.56;100.00;101771.47;5496051;26;19927;-85
2024/04/14 03:35:59;;;;;;;;;;;;;;;4.39;100.00;101764.69;5465632;26;19927;-85
2024/04/14 03:38:24;;;;;;;;;;;;;;;4.23;100.00;101759.63;5496419;26;19927;-85
2024/04/14 03:40:53;;;;;;;;;;;;;;;4.17;100.00;101758.25;5496363;26;20257;-85
2024/04/14 03:43:19;;;;;;;;;;;;;;;4.12;100.00;101765.72;5465694;26;19939;-85
2024/04/14 03:45:44;;;;;;;;;;;;;;;4.09;100.00;101768.59;5465488;26;19972;-85
2024/04/14 03:48:10;;;;;;;;;;;;;;;4.04;100.00;101757.44;5495968;26;19996;-85
2024/04/14 03:50:35;;;;;;;;;;;;;;;4.06;100.00;101763.50;5465676;26;20258;-85
2024/04/14 03:53:00;;;;;;;;;;;;;;;4.17;100.00;101757.41;5495614;26;19934;-85
2024/04/14 03:55:26;;;;;;;;;;;;;;;4.35;100.00;101753.44;5465358;26;19927;-85
2024/04/14 03:57:51;;;;;;;;;;;;;;;4.53;100.00;101750.41;5496220;26;20361;-85
2024/04/14 04:00:17;;;;;;;;;;;;;;;4.61;100.00;101746.22;5495600;26;19927;-86
2024/04/14 04:02:42;;;;;;;;;;;;;;;4.69;100.00;101750.13;5495639;26;19928;-86
2024/04/14 04:05:08;;;;;;;;;;;;;;;4.77;100.00;101745.06;5465415;26;19938;-85
2024/04/14 04:07:35;;;;;;;;;;;;;;;4.81;100.00;101742.06;5526727;26;20000;-85
2024/04/14 04:10:00;;;;;;;;;;;;;;;4.85;100.00;101737.34;5495731;26;19943;-86
2024/04/14 04:12:26;;;;;;;;;;;;;;;4.88;100.00;101730.94;5495622;26;19927;-85
2024/04/14 04:14:51;;;;;;;;;;;;;;;4.88;100.00;101731.78;5495465;26;20271;-84
2024/04/14 04:17:17;;;;;;;;;;;;;;;4.87;100.00;101730.09;5495698;26;19939;-85
2024/04/14 04:19:42;;;;;;;;;;;;;;;4.88;100.00;101722.97;5532582;26;20306;-86
2024/04/14 04:22:08;;;;;;;;;;;;;;;4.88;100.00;101715.81;5467583;26;19931;-85
2024/04/14 04:24:33;;;;;;;;;;;;;;;4.90;100.00;101716.56;5497306;26;20361;-85
2024/04/14 04:26:59;;;;;;;;;;;;;;;4.94;100.00;101728.66;5495532;26;19927;-84
2024/04/14 04:29:29;;;;;;;;;;;;;;;4.99;100.00;101715.00;5465228;26;20377;-85
2024/04/14 04:31:55;;;;;;;;;;;;;;;5.01;100.00;101721.06;5496400;26;19935;-84
2024/04/14 04:34:21;;;;;;;;;;;;;;;5.03;100.00;101721.81;5495653;26;19996;-85
2024/04/14 04:36:46;;;;;;;;;;;;;;;5.02;100.00;101723.59;5495033;26;19927;-84
2024/04/14 04:39:12;;;;;;;;;;;;;;;4.98;100.00;101726.63;5465064;26;19934;-85
2024/04/14 04:41:37;;;;;;;;;;;;;;;4.91;100.00;101722.72;5494967;26;20350;-85
2024/04/14 04:44:05;;;;;;;;;;;;;;;4.84;100.00;101727.66;5495301;26;19994;-85
2024/04/14 04:46:31;;;;;;;;;;;;;;;4.73;100.00;101720.47;5495643;26;19928;-85
2024/04/14 04:48:57;;;;;;;;;;;;;;;4.68;100.00;101719.09;5464489;26;19928;-85
2024/04/14 04:51:22;;;;;;;;;;;;;;;4.65;100.00;101714.84;5494681;26;19927;-85
2024/04/14 04:53:48;;;;;;;;;;;;;;;4.61;100.00;101718.72;5464474;26;19934;-86
2024/04/14 04:56:13;;;;;;;;;;;;;;;4.57;100.00;101712.75;5464289;26;19935;-85
2024/04/14 04:58:39;;;;;;;;;;;;;;;4.53;100.00;101715.78;5494488;26;19927;-85
2024/04/14 05:01:04;;;;;;;;;;;;;;;4.45;100.00;101712.84;5464222;26;19943;-85
2024/04/14 05:03:30;;;;;;;;;;;;;;;4.37;100.00;101716.06;5494711;26;19927;-86
2024/04/14 05:05:58;;;;;;;;;;;;;;;4.26;100.00;101714.19;5494566;26;20374;-85
2024/04/14 05:08:24;;;;;;;;;;;;;;;4.21;100.00;101713.66;5464504;26;20020;-85
2024/04/14 05:10:51;;;;;;;;;;;;;;;4.17;100.00;101714.81;5464404;26;20358;-86
2024/04/14 05:13:17;;;;;;;;;;;;;;;4.15;100.00;101712.28;5494593;26;19976;-85
2024/04/14 05:15:42;;;;;;;;;;;;;;;4.10;100.00;101711.78;5464472;26;20365;-86
2024/04/14 05:18:08;;;;;;;;;;;;;;;4.05;100.00;101705.94;5494333;26;19934;-87
2024/04/14 05:20:34;;;;;;;;;;;;;;;3.94;100.00;101705.81;5525152;26;19928;-86
2024/04/14 05:22:59;;;;;;;;;;;;;;;3.84;100.00;101704.81;5464035;26;19935;-86
2024/04/14 05:25:25;;;;;;;;;;;;;;;3.80;100.00;101711.28;5494239;26;19932;-86
2024/04/14 05:27:50;;;;;;;;;;;;;;;3.83;100.00;101711.06;5463824;26;19928;-86
2024/04/14 05:30:16;;;;;;;;;;;;;;;3.85;100.00;101702.00;5463747;26;20351;-86
2024/04/14 05:32:41;;;;;;;;;;;;;;;3.77;100.00;101700.88;5494098;26;19931;-86
2024/04/14 05:35:07;;;;;;;;;;;;;;;3.61;100.00;101701.09;5493726;26;20276;-87
2024/04/14 05:37:32;;;;;;;;;;;;;;;3.51;100.00;101703.53;5463663;26;19959;-86
2024/04/14 05:39:57;;;;;;;;;;;;;;;3.45;100.00;101696.84;5497719;26;19927;-86
2024/04/14 05:42:23;;;;;;;;;;;;;;;3.41;100.00;101703.31;5468746;26;19928;-85
2024/04/14 05:44:49;;;;;;;;;;;;;;;3.34;100.00;101701.22;5542753;25;19964;-85
2024/04/14 05:47:15;;;;;;;;;;;;;;;3.25;100.00;101694.69;5510424;25;19956;-86
2024/04/14 05:49:41;;;;;;;;;;;;;;;3.15;100.00;101690.97;5467135;26;19928;-86
2024/04/14 05:52:06;;;;;;;;;;;;;;;3.11;100.00;101690.34;5467049;26;19976;-87
2024/04/14 05:54:32;;;;;;;;;;;;;;;3.07;100.00;101687.06;5498196;26;19927;-86
2024/04/14 05:56:57;;;;;;;;;;;;;;;3.10;100.00;101691.31;5528239;26;19935;-85
2024/04/14 05:59:22;;;;;;;;;;;;;;;3.12;100.00;101689.38;5497474;26;19972;-86
2024/04/14 06:01:48;;;;;;;;;;;;;;;3.16;100.00;101690.03;5466927;26;20273;-86
2024/04/14 06:04:14;;;;;;;;;;;;;;;3.22;100.00;101690.44;5497369;26;19934;-86
2024/04/14 06:06:39;;;;;;;;;;;;;;;3.29;100.00;101690.88;5497586;26;20002;-87
2024/04/14 06:09:05;;;;;;;;;;;;;;;3.36;100.00;101692.19;5466671;26;20414;-87
2024/04/14 06:11:30;;;;;;;;;;;;;;;3.48;100.00;101693.13;5497375;26;19927;-86
2024/04/14 06:13:56;;;;;;;;;;;;;;;3.53;100.00;101693.66;5466820;26;20366;-86
2024/04/14 06:16:21;;;;;;;;;;;;;;;3.59;100.00;101695.03;5466718;26;19935;-86
2024/04/14 06:18:48;;;;;;;;;;;;;;;3.70;100.00;101697.78;5527953;26;20354;-86
2024/04/14 06:21:14;;;;;;;;;;;;;;;3.99;100.00;101694.84;5468022;26;19967;-86
2024/04/14 06:23:39;;;;;;;;;;;;;;;4.10;100.00;101697.59;5497189;26;19927;-87
2024/04/14 06:26:05;;;;;;;;;;;;;;;4.18;100.00;101695.22;5497580;26;19927;-85
2024/04/14 06:28:31;;;;;;;;;;;;;;;4.28;100.00;101693.59;5466649;26;20039;-85
2024/04/14 06:30:56;;;;;;;;;;;;;;;4.66;100.00;101687.28;5467238;26;19928;-86
2024/04/14 06:33:22;;;;;;;;;;;;;;;5.28;100.00;101686.94;5496979;26;20257;-85
2024/04/14 06:35:47;;;;;;;;;;;;;;;5.53;100.00;101685.06;5496724;26;19928;-85
2024/04/14 06:38:13;;;;;;;;;;;;;;;5.63;100.00;101678.00;5497042;26;19996;-86
2024/04/14 06:40:40;;;;;;;;;;;;;;;5.61;100.00;101679.97;5497773;26;20357;-85
2024/04/14 06:43:05;;;;;;;;;;;;;;;5.71;100.00;101680.06;5496668;26;19955;-86
2024/04/14 06:45:31;;;;;;;;;;;;;;;5.93;100.00;101682.78;5496749;26;19927;-86
2024/04/14 06:47:56;;;;;;;;;;;;;;;5.94;100.00;101679.13;5528458;26;20399;-86
2024/04/14 06:50:22;;;;;;;;;;;;;;;6.23;100.00;101672.41;5528214;26;19927;-85
2024/04/14 06:52:47;;;;;;;;;;;;;;;6.69;100.00;101674.78;5482338;26;19927;-85
2024/04/14 06:55:15;;;;;;;;;;;;;;;6.90;100.00;101676.66;5487943;26;19927;-85
2024/04/14 06:57:41;;;;;;;;;;;;;;;7.25;100.00;101681.66;5477536;26;19970;-87
2024/04/14 07:00:06;;;;;;;;;;;;;;;7.19;100.00;101676.84;5498546;26;20354;-86
2024/04/14 07:02:32;;;;;;;;;;;;;;;7.12;100.00;101681.00;5528853;26;19927;-87
2024/04/14 07:04:57;;;;;;;;;;;;;;;7.66;100.00;101677.25;5467168;26;19972;-86
2024/04/14 07:07:23;;;;;;;;;;;;;;;7.93;100.00;101672.13;5496637;26;20353;-86
2024/04/14 07:09:48;;;;;;;;;;;;;;;8.37;100.00;101675.31;5496373;26;20255;-85
2024/04/14 07:12:14;;;;;;;;;;;;;;;8.75;100.00;101680.88;5465863;26;19927;-87
2024/04/14 07:14:39;;;;;;;;;;;;;;;9.17;100.00;101683.25;5466207;26;19936;-88
2024/04/14 07:17:05;;;;;;;;;;;;;;;9.45;100.00;101681.50;5496318;26;20258;-88
2024/04/14 07:19:30;;;;;;;;;;;;;;;9.74;100.00;101677.84;5496419;26;19928;-88
2024/04/14 07:21:56;;;;;;;;;;;;;;;9.06;100.00;101667.31;5466124;26;20257;-86
2024/04/14 07:24:21;;;;;;;;;;;;;;;9.67;100.00;101673.06;5467188;26;19927;-87
2024/04/14 07:26:47;;;;;;;;;;;;;;;10.38;100.00;101668.06;5468996;26;19927;-86
2024/04/14 07:29:13;;;;;;;;;;;;;;;10.84;100.00;101674.19;5487177;26;19923;-86
2024/04/14 07:31:39;;;;;;;;;;;;;;;10.87;100.00;101668.50;5471413;26;19927;-88
2024/04/14 07:34:04;;;;;;;;;;;;;;;10.75;100.00;101665.22;5465786;26;19938;-86
2024/04/14 07:36:30;;;;;;;;;;;;;;;10.47;100.00;101664.44;5496155;26;19935;-86
2024/04/14 07:38:55;;;;;;;;;;;;;;;10.28;100.00;101658.22;5465568;26;19931;-85
2024/04/14 07:41:21;;;;;;;;;;;;;;;10.21;100.00;101657.09;5496163;26;19935;-86
2024/04/14 07:43:47;;;;;;;;;;;;;;;9.93;100.00;101667.03;5495953;26;19934;-85
2024/04/14 07:46:12;;;;;;;;;;;;;;;9.56;100.00;101665.22;5526930;26;19927;-85
2024/04/14 07:48:37;;;;;;;;;;;;;;;9.33;100.00;101662.03;5526591;26;19995;-85
2024/04/14 07:51:03;;;;;;;;;;;;;;;9.07;100.00;101659.09;5495736;26;19927;-85
2024/04/14 07:53:29;;;;;;;;;;;;;;;8.95;100.00;101654.91;5465408;26;19935;-85
2024/04/14 07:55:54;;;;;;;;;;;;;;;8.86;100.00;101647.69;5527632;26;19935;-86
2024/04/14 07:58:23;;;;;;;;;;;;;;;8.76;100.00;101653.09;5465663;26;19935;-85
2024/04/14 08:00:48;;;;;;;;;;;;;;;8.84;100.00;101657.72;5495450;26;19935;-87
2024/04/14 08:03:14;;;;;;;;;;;;;;;8.80;100.00;101651.81;5495389;26;19927;-86
2024/04/14 08:05:40;;;;;;;;;;;;;;;8.32;100.00;101660.66;5495817;26;19934;-85
2024/04/14 08:08:08;;;;;;;;;;;;;;;7.90;100.00;101658.16;5465364;26;19935;-86
2024/04/14 08:10:33;;;;;;;;;;;;;;;7.58;100.00;101661.00;5496210;26;19959;-85
2024/04/14 08:12:59;;;;;;;;;;;;;;;7.46;100.00;101652.19;5495340;26;19927;-85
2024/04/14 08:15:24;;;;;;;;;;;;;;;7.50;100.00;101650.97;5464803;26;19927;-84
2024/04/14 08:17:50;;;;;;;;;;;;;;;7.56;100.00;101652.25;5495441;26;19928;-85
2024/04/14 08:20:15;;;;;;;;;;;;;;;7.63;100.00;101638.19;5495296;26;19972;-86
2024/04/14 08:22:41;;;;;;;;;;;;;;;7.80;100.00;101642.06;5495195;26;19934;-86
2024/04/14 08:25:06;;;;;;;;;;;;;;;8.00;100.00;101642.13;5464995;26;19934;-86
2024/04/14 08:27:32;;;;;;;;;;;;;;;8.26;100.00;101634.44;5526019;26;19936;-85
2024/04/14 08:29:57;;;;;;;;;;;;;;;8.54;100.00;101630.91;5525915;26;19995;-85
2024/04/14 08:32:23;;;;;;;;;;;;;;;8.70;100.00;101626.81;5465031;26;19934;-86
2024/04/14 08:34:48;;;;;;;;;;;;;;;8.89;100.00;101634.88;5525921;26;20250;-86
2024/04/14 08:37:14;;;;;;;;;;;;;;;9.10;100.00;101623.94;5495007;26;20351;-85
2024/04/14 08:39:39;;;;;;;;;;;;;;;9.21;100.00;101621.09;5495101;26;19939;-86
2024/04/14 08:42:07;;;;;;;;;;;;;;;9.25;100.00;101622.50;5465977;26;19928;-85
2024/04/14 08:44:33;;;;;;;;;;;;;;;9.41;100.00;101612.97;5526256;26;19931;-84
2024/04/14 08:46:59;;;;;;;;;;;;;;;9.63;100.00;101617.97;5495506;26;19996;-84
2024/04/14 08:49:25;;;;;;;;;;;;;;;9.93;100.00;101610.59;5464529;26;20290;-84
2024/04/14 08:51:50;;;;;;;;;;;;;;;10.30;100.00;101617.75;5464312;26;20003;-85
2024/04/14 08:54:16;;;;;;;;;;;;;;;10.78;100.00;101620.00;5464520;26;19928;-85
2024/04/14 08:56:42;;;;;;;;;;;;;;;11.04;100.00;101621.06;5525338;26;19928;-85
2024/04/14 08:59:08;;;;;;;;;;;;;;;11.10;100.00;101621.25;5494582;26;19927;-88
2024/04/14 09:01:33;;;;;;;;;;;;;;;11.16;100.00;101612.53;5464163;26;19934;-87
2024/04/14 09:04:01;;;;;;;;;;;;;;;11.20;100.00;101616.63;5464263;26;19935;-86
2024/04/14 09:06:26;;;;;;;;;;;;;;;11.17;100.00;101600.78;5494609;26;19928;-85
2024/04/14 09:08:52;;;;;;;;;;;;;;;11.16;100.00;101603.63;5525641;26;19928;-85
2024/04/14 09:11:19;;;;;;;;;;;;;;;11.29;100.00;101606.72;5495399;26;19928;-85
2024/04/14 09:13:45;;;;;;;;;;;;;;;11.51;100.00;101601.78;5495605;26;20429;-86
2024/04/14 09:16:12;;;;;;;;;;;;;;;11.64;100.00;101599.47;5498308;26;19928;-86
2024/04/14 09:18:37;;;;;;;;;;;;;;;11.72;100.00;101594.13;5529272;26;19935;-86
2024/04/14 09:21:03;;;;;;;;;;;;;;;11.69;100.00;101594.44;5497997;26;20273;-86
2024/04/14 09:23:28;;;;;;;;;;;;;;;11.63;100.00;101597.81;5498368;26;20369;-86
2024/04/14 09:25:54;;;;;;;;;;;;;;;11.64;100.00;101586.88;5467556;26;19996;-85
2024/04/14 09:28:19;;;;;;;;;;;;;;;11.69;100.00;101580.97;5503218;26;19923;-85
2024/04/14 09:30:45;;;;;;;;;;;;;;;11.68;100.00;101587.38;5520395;26;19951;-84
2024/04/14 09:33:11;;;;;;;;;;;;;;;11.79;100.00;101583.56;5480947;26;19951;-85
2024/04/14 09:35:36;;;;;;;;;;;;;;;11.88;100.00;101572.69;5528935;26;19963;-85
2024/04/14 09:38:03;;;;;;;;;;;;;;;11.95;100.00;101580.09;5528853;26;19939;-85
2024/04/14 09:40:31;;;;;;;;;;;;;;;12.17;100.00;101582.19;5467237;26;19973;-85
2024/04/14 09:43:00;;;;;;;;;;;;;;;12.40;100.00;101576.13;5498262;26;19927;-85
2024/04/14 09:45:25;;;;;;;;;;;;;;;12.70;100.00;101567.34;5499097;26;19928;-84
2024/04/14 09:47:52;;;;;;;;;;;;;;;13.06;100.00;101561.53;5468515;26;20388;-86
2024/04/14 09:50:19;;;;;;;;;;;;;;;13.22;100.00;101567.94;5529607;26;19995;-86
2024/04/14 09:52:44;;;;;;;;;;;;;;;13.09;100.00;101563.91;5468002;26;19938;-86
2024/04/14 09:55:10;;;;;;;;;;;;;;;13.27;100.00;101558.31;5467993;26;20346;-85
2024/04/14 09:57:36;;;;;;;;;;;;;;;13.36;100.00;101564.53;5468587;26;20387;-85
2024/04/14 10:00:01;;;;;;;;;;;;;;;13.40;100.00;101572.09;5529109;26;19935;-85
2024/04/14 10:02:34;;;;;;;;;;;;;;;13.36;100.00;101568.09;5467791;26;19927;-86
2024/04/14 10:05:00;;;;;;;;;;;;;;;13.47;100.00;101566.88;5497461;26;20266;-84
2024/04/14 10:07:26;;;;;;;;;;;;;;;13.72;100.00;101564.03;5467417;26;19942;-86
2024/04/14 10:09:51;;;;;;;;;;;;;;;13.66;100.00;101546.69;5528034;26;19964;-85
2024/04/14 10:12:20;;;;;;;;;;;;;;;13.74;100.00;101553.91;5497812;26;20354;-86
2024/04/14 10:14:47;;;;;;;;;;;;;;;13.53;100.00;101549.94;5497865;26;19931;-85
2024/04/14 10:17:12;;;;;;;;;;;;;;;13.34;100.00;101558.47;5497381;26;19928;-85
2024/04/14 10:19:38;;;;;;;;;;;;;;;12.83;100.00;101552.47;5497861;26;19995;-85
2024/04/14 10:22:07;;;;;;;;;;;;;;;12.54;100.00;101556.53;5529237;26;19927;-85
2024/04/14 10:24:34;;;;;;;;;;;;;;;12.96;100.00;101552.78;5497433;26;20374;-86
2024/04/14 10:27:06;;;;;;;;;;;;;;;13.05;100.00;101553.63;5500020;26;19977;-85
2024/04/14 10:29:31;;;;;;;;;;;;;;;13.11;100.00;101539.44;5537793;26;19938;-85
2024/04/14 10:31:57;;;;;;;;;;;;;;;12.73;100.00;101536.50;5518847;25;19927;-85
2024/04/14 10:34:23;;;;;;;;;;;;;;;12.45;100.00;101536.00;5499436;26;20262;-87
2024/04/14 10:36:56;;;;;;;;;;;;;;;12.08;100.00;101530.06;5527653;26;20270;-86
2024/04/14 10:39:21;;;;;;;;;;;;;;;11.60;100.00;101528.09;5466766;26;19927;-86
2024/04/14 10:41:47;;;;;;;;;;;;;;;11.41;100.00;101521.97;5497019;26;20271;-85
2024/04/14 10:44:16;;;;;;;;;;;;;;;11.54;100.00;101523.38;5497005;26;19927;-85
2024/04/14 10:46:42;;;;;;;;;;;;;;;12.35;100.00;101524.53;5465909;26;19927;-85
2024/04/14 10:49:08;;;;;;;;;;;;;;;12.90;96.51;101516.53;5497200;26;19934;-85
2024/04/14 10:51:35;;;;;;;;;;;;;;;13.07;90.33;101521.88;5496475;26;19935;-85
2024/04/14 10:54:01;;;;;;;;;;;;;;;13.38;86.82;101513.88;5496704;26;19934;-85
2024/04/14 10:56:27;;;;;;;;;;;;;;;13.69;85.39;101513.06;5466216;26;19928;-86
2024/04/14 10:58:52;;;;;;;;;;;;;;;13.42;85.66;101520.63;5527909;26;19935;-86
2024/04/14 11:01:18;;;;;;;;;;;;;;;12.99;88.45;101514.66;5466831;26;19927;-85
2024/04/14 11:03:43;;;;;;;;;;;;;;;12.55;87.12;101504.31;5497551;26;19927;-85
2024/04/14 11:06:09;;;;;;;;;;;;;;;12.85;88.03;101504.56;5466930;26;19931;-84
2024/04/14 11:08:34;;;;;;;;;;;;;;;13.41;82.46;101498.13;5497370;26;20307;-85
2024/04/14 11:11:00;;;;;;;;;;;;;;;14.27;75.29;101498.94;5527796;26;19934;-86
2024/04/14 11:13:27;;;;;;;;;;;;;;;14.47;70.47;101502.00;5527831;26;20373;-86
2024/04/14 11:15:57;;;;;;;;;;;;;;;14.37;67.78;101481.59;5527470;26;19959;-85
2024/04/14 11:18:26;;;;;;;;;;;;;;;14.37;69.65;101484.31;5496484;26;19939;-86
2024/04/14 11:20:52;;;;;;;;;;;;;;;14.67;67.45;101479.81;5527340;26;19927;-86
2024/04/14 11:23:17;;;;;;;;;;;;;;;15.62;62.74;101462.72;5496227;26;19934;-85
2024/04/14 11:25:43;;;;;;;;;;;;;;;16.02;60.63;101449.59;5496354;26;19936;-86
2024/04/14 11:28:09;;;;;;;;;;;;;;;16.13;59.12;101465.34;5465933;26;19935;-86
2024/04/14 11:30:35;;;;;;;;;;;;;;;16.31;58.19;101461.31;5466355;26;20377;-86
2024/04/14 11:33:01;;;;;;;;;;;;;;;16.11;59.40;101451.13;5527260;26;19939;-86
2024/04/14 11:35:27;;;;;;;;;;;;;;;15.17;60.96;101445.72;5466310;26;19928;-85
2024/04/14 11:37:54;;;;;;;;;;;;;;;14.21;63.85;101452.81;5465290;26;20361;-85
2024/04/14 11:40:23;;;;;;;;;;;;;;;13.04;71.89;101449.34;5497080;26;19964;-86
2024/04/14 11:42:52;;;;;;;;;;;;;;;11.47;95.77;101477.41;5527044;26;20441;-88
2024/04/14 11:45:17;;;;;;;;;;;;;;;9.76;100.00;101485.16;5527113;26;19939;-85
2024/04/14 11:47:43;;;;;;;;;;;;;;;9.27;100.00;101468.56;5496216;26;19934;-85
2024/04/14 11:50:09;;;;;;;;;;;;;;;9.47;100.00;101470.09;5496053;26;19934;-84
2024/04/14 11:52:34;;;;;;;;;;;;;;;9.75;100.00;101464.69;5465823;26;19927;-84
2024/04/14 11:55:03;;;;;;;;;;;;;;;10.47;100.00;101457.41;5495894;26;19927;-85
2024/04/14 11:57:29;;;;;;;;;;;;;;;11.30;100.00;101449.59;5526276;26;19931;-85
2024/04/14 11:59:54;;;;;;;;;;;;;;;11.97;100.00;101456.81;5495474;26;20002;-86
2024/04/14 12:02:21;;;;;;;;;;;;;;;12.53;100.00;101441.56;5496266;26;19927;-85
2024/04/14 12:04:48;;;;;;;;;;;;;;;12.76;100.00;101442.53;5495891;26;20289;-85
2024/04/14 12:07:14;;;;;;;;;;;;;;;13.08;100.00;101437.19;5495698;26;19938;-85
2024/04/14 12:09:39;;;;;;;;;;;;;;;13.39;100.00;101429.13;5495480;26;20366;-88
2024/04/14 12:12:07;;;;;;;;;;;;;;;13.71;100.00;101419.13;5525438;26;20464;-85
2024/04/14 12:14:32;;;;;;;;;;;;;;;13.98;100.00;101410.44;5526177;26;19927;-86
2024/04/14 12:16:59;;;;;;;;;;;;;;;14.51;100.00;101405.88;5474204;26;19927;-86
2024/04/14 12:19:25;;;;;;;;;;;;;;;14.81;100.00;101403.19;5510895;26;19955;-84
2024/04/14 12:21:50;;;;;;;;;;;;;;;14.83;100.00;101403.00;5505737;26;20365;-86
2024/04/14 12:24:17;;;;;;;;;;;;;;;14.22;100.00;101395.03;5498103;26;19932;-88
2024/04/14 12:26:43;;;;;;;;;;;;;;;13.89;100.00;101391.75;5496794;26;19975;-87